createdAt,value
2023-03-26T00:01:29.697Z,26.23
2023-03-26T00:03:58.028Z,23.38
2023-03-26T00:06:31.301Z,18.67
2023-03-26T00:08:58.497Z,23.42
2023-03-26T00:11:27.447Z,22.38
2023-03-26T00:13:57.750Z,18.15
2023-03-26T00:16:28.845Z,18.83
2023-03-26T00:18:57.520Z,16.45
2023-03-26T00:21:28.200Z,21.40
2023-03-26T00:23:58.480Z,21.55
2023-03-26T00:26:27.108Z,22.48
2023-03-26T00:28:54.521Z,23.88
2023-03-26T00:31:22.292Z,23.13
2023-03-26T00:33:54.289Z,19.00
2023-03-26T00:36:25.376Z,20.50
2023-03-26T00:38:53.924Z,19.60
2023-03-26T00:41:25.878Z,23.73
2023-03-26T00:43:58.815Z,28.30
2023-03-26T00:46:28.497Z,30.27
2023-03-26T00:48:58.864Z,25.02
2023-03-26T00:51:27.713Z,30.15
2023-03-26T00:53:55.778Z,27.77
2023-03-26T00:56:23.223Z,23.15
2023-03-26T00:58:50.420Z,24.83
2023-03-26T01:01:27.292Z,28.58
2023-03-26T01:04:08.295Z,27.15
2023-03-26T01:06:42.327Z,23.25
2023-03-26T01:09:21.511Z,23.40
2023-03-26T01:11:49.865Z,20.98
2023-03-26T01:14:25.309Z,25.27
2023-03-26T01:16:58.426Z,23.60
2023-03-26T01:19:38.206Z,19.98
2023-03-26T01:22:09.606Z,22.80
2023-03-26T01:24:37.870Z,24.00
2023-03-26T01:27:09.560Z,28.15
2023-03-26T01:29:42.880Z,23.77
2023-03-26T01:32:17.684Z,20.02
2023-03-26T01:35:19.075Z,22.85
2023-03-26T01:38:18.495Z,25.70
2023-03-26T01:40:54.762Z,26.85
2023-03-26T01:43:44.391Z,24.08
2023-03-26T01:46:14.691Z,24.83
2023-03-26T01:48:46.823Z,30.00
2023-03-26T01:51:25.120Z,21.17
2023-03-26T01:53:53.410Z,23.42
2023-03-26T01:56:35.915Z,26.60
2023-03-26T01:59:21.339Z,23.15
2023-03-26T02:02:11.735Z,25.98
2023-03-26T02:05:00.336Z,25.42
2023-03-26T02:07:52.963Z,20.35
2023-03-26T02:10:29.702Z,20.55
2023-03-26T02:12:59.014Z,24.77
2023-03-26T02:15:26.245Z,21.08
2023-03-26T02:17:54.077Z,19.58
2023-03-26T02:20:21.654Z,24.63
2023-03-26T02:22:48.957Z,23.88
2023-03-26T02:25:21.245Z,24.33
2023-03-26T02:27:52.431Z,20.42
2023-03-26T02:30:26.049Z,20.23
2023-03-26T02:32:59.246Z,24.42
2023-03-26T02:35:31.398Z,33.80
2023-03-26T02:38:01.160Z,29.23
2023-03-26T02:40:28.558Z,23.65
2023-03-26T02:42:56.397Z,29.95
2023-03-26T02:45:24.333Z,27.20
2023-03-26T02:48:09.971Z,25.98
2023-03-26T02:51:03.060Z,25.10
2023-03-26T02:53:41.995Z,27.23
2023-03-26T02:56:35.315Z,26.92
2023-03-26T02:59:25.307Z,22.42
2023-03-26T03:02:13.403Z,24.42
2023-03-26T03:04:41.058Z,24.13
2023-03-26T03:07:08.222Z,23.52
2023-03-26T03:09:35.518Z,22.13
2023-03-26T03:12:25.283Z,23.00
2023-03-26T03:14:52.553Z,34.35
2023-03-26T03:17:20.891Z,22.80
2023-03-26T03:19:48.203Z,18.10
2023-03-26T03:22:16.244Z,24.02
2023-03-26T03:24:43.793Z,20.02
2023-03-26T03:27:10.960Z,23.92
2023-03-26T03:29:42.824Z,24.73
2023-03-26T03:32:28.478Z,24.45
2023-03-26T03:35:00.402Z,24.55
2023-03-26T03:37:27.696Z,23.10
2023-03-26T03:39:56.220Z,22.83
2023-03-26T03:42:27.405Z,22.52
2023-03-26T03:44:57.224Z,24.15
2023-03-26T03:47:43.054Z,26.10
2023-03-26T03:50:11.794Z,24.42
2023-03-26T03:52:47.313Z,27.20
2023-03-26T03:55:17.292Z,24.80
2023-03-26T03:57:52.456Z,25.45
2023-03-26T04:00:22.587Z,25.60
2023-03-26T04:03:06.489Z,25.77
2023-03-26T04:05:34.593Z,23.45
2023-03-26T04:08:01.903Z,27.50
2023-03-26T04:10:28.933Z,24.65
2023-03-26T04:13:05.286Z,25.23
2023-03-26T04:15:48.535Z,26.40
2023-03-26T04:18:15.820Z,26.33
2023-03-26T04:20:49.324Z,22.77
2023-03-26T04:23:23.213Z,28.30
2023-03-26T04:26:03.397Z,26.08
2023-03-26T04:28:54.721Z,26.75
2023-03-26T04:31:30.769Z,24.63
2023-03-26T04:34:06.220Z,23.45
2023-03-26T04:36:40.646Z,25.95
2023-03-26T04:39:11.697Z,25.70
2023-03-26T04:42:14.313Z,24.90
2023-03-26T04:44:55.854Z,25.25
2023-03-26T04:47:23.534Z,21.70
2023-03-26T04:49:50.926Z,29.40
2023-03-26T04:52:18.761Z,23.23
2023-03-26T04:54:58.350Z,23.42
2023-03-26T04:57:32.624Z,25.30
2023-03-26T05:00:19.561Z,25.15
2023-03-26T05:02:57.817Z,22.65
2023-03-26T05:05:26.960Z,25.48
2023-03-26T05:07:55.267Z,25.58
2023-03-26T05:10:23.832Z,25.80
2023-03-26T05:12:56.391Z,25.90
2023-03-26T05:15:27.211Z,29.52
2023-03-26T05:17:55.522Z,19.58
2023-03-26T05:20:34.311Z,23.67
2023-03-26T05:23:03.288Z,20.38
2023-03-26T05:25:34.802Z,19.17
2023-03-26T05:28:03.772Z,19.60
2023-03-26T05:30:38.906Z,20.85
2023-03-26T05:33:06.626Z,19.17
2023-03-26T05:35:45.275Z,18.33
2023-03-26T05:38:12.837Z,19.60
2023-03-26T05:40:39.970Z,20.75
2023-03-26T05:43:08.252Z,17.08
2023-03-26T05:45:35.313Z,20.67
2023-03-26T05:48:15.646Z,20.50
2023-03-26T05:50:42.983Z,19.75
2023-03-26T05:53:10.258Z,18.90
2023-03-26T05:55:59.351Z,19.83
2023-03-26T05:58:45.002Z,18.92
2023-03-26T06:01:44.615Z,19.23
2023-03-26T06:04:16.147Z,18.70
2023-03-26T06:06:57.729Z,24.20
2023-03-26T06:09:25.828Z,20.33
2023-03-26T06:11:52.987Z,23.17
2023-03-26T06:14:20.767Z,17.10
2023-03-26T06:17:15.392Z,17.83
2023-03-26T06:20:00.982Z,25.80
2023-03-26T06:22:40.458Z,21.60
2023-03-26T06:25:19.289Z,17.83
2023-03-26T06:28:16.262Z,18.02
2023-03-26T06:30:49.676Z,16.77
2023-03-26T06:33:30.450Z,23.00
2023-03-26T06:35:59.646Z,24.85
2023-03-26T06:38:27.031Z,20.25
2023-03-26T06:40:54.793Z,20.35
2023-03-26T06:43:25.394Z,20.30
2023-03-26T06:46:21.352Z,19.95
2023-03-26T06:49:07.099Z,22.02
2023-03-26T06:51:53.452Z,18.98
2023-03-26T06:54:39.150Z,21.08
2023-03-26T06:57:48.697Z,19.98
2023-03-26T07:00:42.315Z,18.30
2023-03-26T07:03:38.978Z,17.48
2023-03-26T07:06:24.886Z,19.35
2023-03-26T07:09:12.026Z,22.45
2023-03-26T07:11:59.167Z,18.83
2023-03-26T07:14:44.935Z,16.33
2023-03-26T07:17:35.173Z,15.57
2023-03-26T07:20:13.211Z,19.77
2023-03-26T07:22:42.071Z,14.95
2023-03-26T07:25:28.059Z,18.25
2023-03-26T07:28:32.834Z,18.15
2023-03-26T07:31:46.081Z,19.23
2023-03-26T07:35:03.298Z,18.25
2023-03-26T07:37:57.103Z,16.23
2023-03-26T07:40:54.956Z,18.67
2023-03-26T07:43:52.012Z,18.25
2023-03-26T07:46:34.858Z,19.83
2023-03-26T07:49:21.840Z,18.20
2023-03-26T07:52:25.932Z,19.23
2023-03-26T07:55:14.981Z,16.77
2023-03-26T07:58:18.977Z,15.60
2023-03-26T08:04:23.574Z,17.08
2023-03-26T08:07:45.124Z,19.20
2023-03-26T08:10:23.216Z,20.00
2023-03-26T08:13:28.071Z,16.50
2023-03-26T08:16:01.360Z,15.02
2023-03-26T08:18:50.196Z,20.67
2023-03-26T08:21:34.863Z,14.35
2023-03-26T08:24:34.231Z,18.25
2023-03-26T08:27:13.456Z,18.85
2023-03-26T08:29:45.149Z,15.15
2023-03-26T08:32:19.038Z,14.60
2023-03-26T08:34:46.779Z,13.63
2023-03-26T08:37:14.644Z,13.60
2023-03-26T08:39:42.363Z,13.02
2023-03-26T08:42:21.305Z,12.05
2023-03-26T08:45:30.015Z,13.93
2023-03-26T08:48:06.637Z,19.15
2023-03-26T08:50:46.304Z,13.50
2023-03-26T08:53:13.637Z,15.15
2023-03-26T08:56:01.592Z,14.55
2023-03-26T08:58:50.638Z,17.83
2023-03-26T09:01:20.526Z,14.10
2023-03-26T09:04:24.648Z,11.30
2023-03-26T09:07:06.837Z,15.80
2023-03-26T09:10:02.867Z,13.38
2023-03-26T09:12:51.351Z,11.77
2023-03-26T09:15:42.366Z,13.15
2023-03-26T09:18:18.526Z,10.23
2023-03-26T09:20:54.767Z,12.45
2023-03-26T09:23:36.406Z,9.27
2023-03-26T09:26:26.120Z,12.00
2023-03-26T09:29:14.941Z,15.60
2023-03-26T09:32:17.025Z,11.95
2023-03-26T09:34:50.086Z,8.27
2023-03-26T09:37:56.891Z,10.20
2023-03-26T09:41:05.484Z,13.38
2023-03-26T09:43:36.746Z,12.13
2023-03-26T09:46:35.975Z,11.35
2023-03-26T09:49:26.924Z,10.43
2023-03-26T09:52:13.593Z,9.38
2023-03-26T09:54:49.990Z,11.95
2023-03-26T09:57:45.217Z,11.68
2023-03-26T10:00:28.371Z,10.13
2023-03-26T10:03:26.410Z,11.68
2023-03-26T10:06:11.923Z,11.40
2023-03-26T10:08:50.404Z,11.35
2023-03-26T10:11:38.110Z,12.07
2023-03-26T10:14:29.430Z,10.80
2023-03-26T10:17:21.715Z,11.27
2023-03-26T10:19:52.320Z,7.63
2023-03-26T10:22:27.335Z,6.43
2023-03-26T10:25:12.831Z,12.52
2023-03-26T10:27:46.146Z,8.40
2023-03-26T10:33:02.904Z,10.02
2023-03-26T10:35:39.794Z,12.13
2023-03-26T10:38:18.317Z,7.78
2023-03-26T10:40:58.477Z,8.15
2023-03-26T10:44:07.486Z,9.23
2023-03-26T10:46:52.581Z,7.90
2023-03-26T10:49:25.809Z,6.97
2023-03-26T10:54:47.405Z,5.15
2023-03-26T10:57:23.312Z,7.47
2023-03-26T10:59:53.997Z,9.13
2023-03-26T11:02:29.597Z,8.80
2023-03-26T11:05:07.064Z,11.02
2023-03-26T11:07:44.028Z,8.80
2023-03-26T11:10:16.880Z,7.22
2023-03-26T11:12:55.735Z,10.15
2023-03-26T11:15:31.337Z,8.30
2023-03-26T11:17:58.419Z,11.00
2023-03-26T11:20:44.176Z,8.85
2023-03-26T11:23:36.127Z,11.05
2023-03-26T11:26:06.306Z,10.65
2023-03-26T11:29:03.077Z,7.28
2023-03-26T11:31:32.001Z,7.97
2023-03-26T11:34:06.269Z,9.85
2023-03-26T11:36:39.589Z,12.02
2023-03-26T11:39:13.897Z,10.43
2023-03-26T11:41:41.287Z,9.40
2023-03-26T11:44:28.235Z,7.25
2023-03-26T11:47:01.192Z,10.40
2023-03-26T11:49:29.497Z,8.80
2023-03-26T11:51:56.711Z,7.18
2023-03-26T11:54:23.810Z,10.70
2023-03-26T11:57:05.805Z,9.15
2023-03-26T11:59:57.132Z,11.02
2023-03-26T12:02:38.597Z,12.77
2023-03-26T12:05:29.440Z,10.32
2023-03-26T12:08:00.426Z,10.80
2023-03-26T12:10:35.058Z,8.80
2023-03-26T12:13:26.506Z,8.73
2023-03-26T12:15:59.387Z,11.52
2023-03-26T12:18:28.258Z,10.60
2023-03-26T12:21:10.601Z,6.50
2023-03-26T12:23:45.486Z,9.50
2023-03-26T12:26:18.766Z,8.07
2023-03-26T12:31:19.681Z,11.45
2023-03-26T12:34:16.707Z,11.57
2023-03-26T12:36:59.999Z,8.55
2023-03-26T12:40:08.087Z,10.93
2023-03-26T12:44:51.383Z,6.20
2023-03-26T12:45:14.398Z,12.18
2023-03-26T12:47:57.825Z,9.88
2023-03-26T12:50:57.609Z,6.88
2023-03-26T12:53:37.601Z,9.90
2023-03-26T12:56:27.205Z,12.02
2023-03-26T12:59:18.604Z,11.65
2023-03-26T13:02:13.996Z,6.65
2023-03-26T13:05:07.071Z,6.03
2023-03-26T13:07:48.737Z,7.03
2023-03-26T13:10:37.129Z,7.32
2023-03-26T13:13:10.004Z,7.35
2023-03-26T13:15:43.302Z,6.03
2023-03-26T13:18:48.950Z,8.05
2023-03-26T13:21:37.927Z,5.97
2023-03-26T13:24:22.958Z,5.55
2023-03-26T13:27:04.257Z,9.23
2023-03-26T13:29:49.832Z,6.57
2023-03-26T13:32:22.867Z,5.05
2023-03-26T13:35:17.818Z,10.20
2023-03-26T13:38:00.979Z,10.57
2023-03-26T13:41:14.507Z,8.48
2023-03-26T13:43:58.000Z,7.38
2023-03-26T13:46:48.858Z,7.70
2023-03-26T13:49:29.282Z,6.15
2023-03-26T13:52:01.754Z,7.13
2023-03-26T13:54:35.827Z,7.32
2023-03-26T13:57:31.832Z,19.98
2023-03-26T14:00:22.091Z,6.03
2023-03-26T14:02:57.416Z,10.27
2023-03-26T14:05:33.363Z,4.28
2023-03-26T14:08:04.364Z,8.02
2023-03-26T14:10:42.995Z,6.85
2023-03-26T14:13:15.626Z,6.55
2023-03-26T14:16:21.066Z,8.80
2023-03-26T14:18:56.176Z,7.88
2023-03-26T14:22:02.063Z,7.47
2023-03-26T14:25:04.541Z,8.23
2023-03-26T14:27:40.525Z,4.95
2023-03-26T14:30:28.190Z,5.65
2023-03-26T14:33:11.308Z,7.47
2023-03-26T14:36:07.095Z,4.53
2023-03-26T14:38:52.176Z,4.10
2023-03-26T14:41:28.926Z,3.85
2023-03-26T14:44:24.000Z,4.97
2023-03-26T14:47:01.673Z,4.85
2023-03-26T14:50:03.405Z,4.90
2023-03-26T14:52:50.893Z,3.88
2023-03-26T14:55:30.114Z,4.05
2023-03-26T14:58:08.075Z,5.30
2023-03-26T15:01:04.056Z,3.42
2023-03-26T15:03:48.851Z,3.05
2023-03-26T15:06:34.142Z,6.55
2023-03-26T15:09:26.351Z,9.52
2023-03-26T15:12:21.167Z,4.18
2023-03-26T15:15:13.182Z,5.45
2023-03-26T15:17:49.445Z,4.20
2023-03-26T15:21:00.290Z,3.65
2023-03-26T15:23:58.566Z,2.75
2023-03-26T15:26:44.150Z,5.95
2023-03-26T15:29:40.247Z,5.70
2023-03-26T15:32:30.068Z,4.25
2023-03-26T15:35:34.680Z,10.45
2023-03-26T15:38:10.608Z,4.55
2023-03-26T15:40:44.705Z,6.50
2023-03-26T15:43:11.828Z,6.68
2023-03-26T15:45:49.733Z,3.85
2023-03-26T15:48:25.829Z,5.50
2023-03-26T15:50:54.441Z,3.88
2023-03-26T15:53:48.935Z,4.43
2023-03-26T15:56:40.293Z,4.25
2023-03-26T15:59:38.199Z,4.55
2023-03-26T16:02:38.964Z,4.38
2023-03-26T16:05:44.744Z,4.25
2023-03-26T16:08:38.761Z,3.75
2023-03-26T16:11:12.466Z,4.57
2023-03-26T16:13:39.906Z,3.88
2023-03-26T16:16:19.882Z,7.97
2023-03-26T16:18:58.469Z,5.38
2023-03-26T16:21:32.820Z,3.75
2023-03-26T16:24:03.063Z,5.55
2023-03-26T16:26:48.791Z,5.55
2023-03-26T16:29:26.794Z,16.20
2023-03-26T16:32:15.795Z,17.63
2023-03-26T16:34:57.951Z,14.05
2023-03-26T16:37:50.571Z,11.38
2023-03-26T16:40:17.820Z,6.35
2023-03-26T16:43:11.725Z,6.43
2023-03-26T16:45:49.149Z,7.68
2023-03-26T16:48:51.341Z,4.30
2023-03-26T16:51:31.902Z,5.95
2023-03-26T16:54:23.251Z,8.30
2023-03-26T16:57:16.173Z,7.30
2023-03-26T17:00:06.187Z,5.03
2023-03-26T17:03:16.003Z,9.02
2023-03-26T17:05:58.041Z,7.05
2023-03-26T17:08:43.396Z,5.40
2023-03-26T17:11:36.717Z,10.68
2023-03-26T17:14:24.858Z,7.75
2023-03-26T17:17:22.530Z,12.00
2023-03-26T17:20:19.163Z,6.43
2023-03-26T17:22:51.697Z,11.48
2023-03-26T17:26:02.935Z,11.93
2023-03-26T17:28:50.522Z,11.77
2023-03-26T17:31:40.139Z,12.07
2023-03-26T17:34:33.172Z,12.18
2023-03-26T17:37:03.161Z,11.52
2023-03-26T17:39:50.420Z,15.52
2023-03-26T17:42:27.413Z,13.07
2023-03-26T17:44:59.220Z,12.70
2023-03-26T17:47:26.383Z,9.05
2023-03-26T17:50:20.206Z,6.13
2023-03-26T17:53:01.235Z,7.10
2023-03-26T17:55:31.635Z,10.23
2023-03-26T17:58:03.451Z,8.35
2023-03-26T18:00:41.301Z,7.53
2023-03-26T18:03:08.398Z,8.82
2023-03-26T18:05:39.402Z,5.72
2023-03-26T18:08:41.391Z,8.52
2023-03-26T18:11:36.970Z,10.35
2023-03-26T18:14:29.762Z,8.32
2023-03-26T18:16:59.866Z,4.95
2023-03-26T18:19:27.537Z,7.93
2023-03-26T18:21:58.943Z,5.47
2023-03-26T18:24:37.444Z,6.90
2023-03-26T18:27:08.481Z,7.25
2023-03-26T18:29:37.831Z,6.25
2023-03-26T18:32:11.307Z,8.52
2023-03-26T18:34:46.625Z,8.88
2023-03-26T18:37:19.567Z,7.18
2023-03-26T18:39:59.061Z,8.68
2023-03-26T18:42:28.350Z,8.82
2023-03-26T18:44:59.930Z,4.72
2023-03-26T18:47:31.046Z,5.10
2023-03-26T18:49:59.065Z,4.68
2023-03-26T18:52:29.829Z,5.40
2023-03-26T18:54:59.049Z,8.13
2023-03-26T18:57:28.401Z,7.57
2023-03-26T19:00:08.820Z,4.70
2023-03-26T19:02:36.629Z,6.97
2023-03-26T19:05:04.172Z,5.50
2023-03-26T19:07:31.615Z,9.55
2023-03-26T19:10:00.348Z,5.55
2023-03-26T19:12:33.123Z,6.63
2023-03-26T19:15:17.254Z,4.57
2023-03-26T19:17:47.763Z,5.10
2023-03-26T19:20:27.712Z,7.05
2023-03-26T19:22:56.861Z,6.97
2023-03-26T19:25:31.355Z,6.20
2023-03-26T19:27:59.214Z,4.50
2023-03-26T19:30:32.782Z,8.02
2023-03-26T19:35:42.396Z,7.88
2023-03-26T19:38:29.994Z,6.57
2023-03-26T19:40:58.100Z,7.22
2023-03-26T19:43:26.234Z,6.07
2023-03-26T19:46:00.029Z,6.32
2023-03-26T19:48:46.665Z,8.23
2023-03-26T19:51:37.122Z,9.88
2023-03-26T19:54:14.614Z,7.63
2023-03-26T19:56:43.421Z,7.53
2023-03-26T19:59:10.664Z,8.77
2023-03-26T20:01:37.855Z,6.40
2023-03-26T20:04:06.609Z,8.75
2023-03-26T20:06:43.237Z,7.90
2023-03-26T20:09:14.275Z,7.03
2023-03-26T20:11:42.088Z,8.32
2023-03-26T20:14:15.169Z,6.32
2023-03-26T20:16:44.931Z,7.07
2023-03-26T20:19:14.718Z,8.13
2023-03-26T20:21:43.005Z,9.05
2023-03-26T20:24:18.102Z,10.50
2023-03-26T20:26:46.493Z,8.80
2023-03-26T20:29:14.527Z,9.93
2023-03-26T20:31:42.584Z,8.10
2023-03-26T20:34:16.636Z,10.10
2023-03-26T20:36:45.518Z,8.27
2023-03-26T20:39:13.278Z,9.50
2023-03-26T20:41:45.007Z,11.25
2023-03-26T20:44:15.613Z,10.18
2023-03-26T20:46:43.938Z,9.98
2023-03-26T20:49:12.235Z,7.85
2023-03-26T20:51:41.736Z,9.30
2023-03-26T20:54:17.764Z,7.90
2023-03-26T20:56:45.656Z,9.85
2023-03-26T20:59:18.831Z,9.35
2023-03-26T21:01:47.378Z,11.77
2023-03-26T21:04:16.086Z,8.25
2023-03-26T21:06:43.620Z,10.68
2023-03-26T21:09:15.043Z,9.80
2023-03-26T21:12:02.098Z,10.10
2023-03-26T21:14:40.227Z,9.27
2023-03-26T21:17:14.621Z,11.77
2023-03-26T21:19:42.654Z,8.20
2023-03-26T21:22:22.574Z,9.65
2023-03-26T21:24:58.064Z,9.70
2023-03-26T21:27:37.800Z,12.65
2023-03-26T21:30:16.229Z,9.90
2023-03-26T21:32:45.370Z,8.95
2023-03-26T21:35:14.936Z,8.27
2023-03-26T21:37:44.355Z,11.25
2023-03-26T21:40:14.571Z,8.68
2023-03-26T21:42:43.246Z,8.68
2023-03-26T21:45:11.262Z,7.90
2023-03-26T21:47:38.802Z,7.65
2023-03-26T21:50:07.753Z,13.52
2023-03-26T21:52:35.841Z,9.27
2023-03-26T21:55:05.257Z,7.63
2023-03-26T21:57:43.567Z,8.32
2023-03-26T22:00:23.731Z,7.03
2023-03-26T22:03:14.829Z,7.47
2023-03-26T22:06:02.707Z,7.80
2023-03-26T22:08:35.670Z,7.60
2023-03-26T22:11:02.819Z,7.40
2023-03-26T22:13:30.986Z,8.63
2023-03-26T22:15:58.187Z,8.48
2023-03-26T22:18:26.022Z,9.10
2023-03-26T22:20:53.292Z,8.50
2023-03-26T22:23:20.822Z,7.95
2023-03-26T22:25:47.955Z,9.15
2023-03-26T22:28:15.657Z,10.27
2023-03-26T22:30:42.777Z,8.50
2023-03-26T22:33:11.079Z,8.77
2023-03-26T22:35:39.014Z,10.25
2023-03-26T22:38:06.822Z,11.77
2023-03-26T22:40:33.925Z,13.80
2023-03-26T22:43:01.062Z,11.40
2023-03-26T22:45:28.139Z,12.05
2023-03-26T22:48:03.811Z,13.10
2023-03-26T22:50:32.514Z,11.15
2023-03-26T22:52:59.778Z,11.60
2023-03-26T22:55:28.968Z,9.32
2023-03-26T22:57:57.335Z,14.60
2023-03-26T23:00:26.382Z,12.15
2023-03-26T23:02:55.965Z,12.52
2023-03-26T23:05:23.675Z,13.23
2023-03-26T23:07:52.203Z,14.07
2023-03-26T23:10:19.281Z,12.90
2023-03-26T23:12:46.578Z,13.73
2023-03-26T23:15:14.060Z,13.65
2023-03-26T23:17:41.309Z,11.55
2023-03-26T23:20:14.510Z,10.20
2023-03-26T23:22:42.930Z,12.60
2023-03-26T23:25:11.627Z,13.23
2023-03-26T23:27:40.202Z,12.68
2023-03-26T23:30:08.152Z,14.27
2023-03-26T23:32:37.755Z,13.63
2023-03-26T23:35:06.031Z,15.13
2023-03-26T23:37:35.095Z,16.67
2023-03-26T23:40:07.370Z,17.02
2023-03-26T23:42:34.606Z,17.27
2023-03-26T23:45:01.950Z,14.75
2023-03-26T23:47:34.295Z,18.88
2023-03-26T23:50:02.644Z,16.00
2023-03-26T23:52:30.820Z,13.63
2023-03-26T23:55:00.764Z,12.50
2023-03-26T23:57:27.886Z,15.50
2023-03-26T23:59:55.560Z,12.55
